createdAt,value
2022-07-30T00:01:51.691Z,53.81
2022-07-30T00:04:20.305Z,53.94
2022-07-30T00:06:47.079Z,53.82
2022-07-30T00:09:13.807Z,53.66
2022-07-30T00:11:40.508Z,53.52
2022-07-30T00:14:08.295Z,53.95
2022-07-30T00:16:35.006Z,54.90
2022-07-30T00:19:02.303Z,54.67
2022-07-30T00:21:35.827Z,54.81
2022-07-30T00:24:06.340Z,54.66
2022-07-30T00:26:32.986Z,54.70
2022-07-30T00:28:59.873Z,54.83
2022-07-30T00:31:26.505Z,55.39
2022-07-30T00:33:53.259Z,56.00
2022-07-30T00:36:21.020Z,55.78
2022-07-30T00:38:47.938Z,56.12
2022-07-30T00:41:15.562Z,56.29
2022-07-30T00:43:43.843Z,56.19
2022-07-30T00:46:10.602Z,56.05
2022-07-30T00:48:37.514Z,56.17
2022-07-30T00:51:04.613Z,56.16
2022-07-30T00:53:31.239Z,56.36
2022-07-30T00:55:57.980Z,56.61
2022-07-30T00:58:26.097Z,56.86
2022-07-30T01:00:53.033Z,56.41
2022-07-30T01:03:19.957Z,56.82
2022-07-30T01:05:46.633Z,56.73
2022-07-30T01:08:14.071Z,57.18
2022-07-30T01:10:40.770Z,57.51
2022-07-30T01:13:07.973Z,57.07
2022-07-30T01:15:35.098Z,57.41
2022-07-30T01:18:04.162Z,57.66
2022-07-30T01:20:38.886Z,58.06
2022-07-30T01:23:14.870Z,58.28
2022-07-30T01:25:57.091Z,58.57
2022-07-30T01:28:27.833Z,58.16
2022-07-30T01:30:55.862Z,58.27
2022-07-30T01:33:23.198Z,57.91
2022-07-30T01:35:50.842Z,58.05
2022-07-30T01:38:21.889Z,58.38
2022-07-30T01:40:51.802Z,58.75
2022-07-30T01:43:20.143Z,58.63
2022-07-30T01:45:49.913Z,58.89
2022-07-30T01:48:20.521Z,59.00
2022-07-30T01:50:51.498Z,59.24
2022-07-30T01:53:21.416Z,58.88
2022-07-30T01:55:48.541Z,59.03
2022-07-30T01:58:19.461Z,59.07
2022-07-30T02:00:49.298Z,58.60
2022-07-30T02:03:16.187Z,58.70
2022-07-30T02:05:50.698Z,58.48
2022-07-30T02:08:40.513Z,58.60
2022-07-30T02:11:09.844Z,58.53
2022-07-30T02:13:50.817Z,59.33
2022-07-30T02:16:24.822Z,59.20
2022-07-30T02:19:06.127Z,58.65
2022-07-30T02:21:50.353Z,59.19
2022-07-30T02:25:32.966Z,59.88
2022-07-30T02:28:07.084Z,59.60
2022-07-30T02:30:36.858Z,59.52
2022-07-30T02:33:10.513Z,59.57
2022-07-30T02:35:37.779Z,59.63
2022-07-30T02:38:05.566Z,59.58
2022-07-30T02:40:32.823Z,59.55
2022-07-30T02:43:01.146Z,59.56
2022-07-30T02:45:29.325Z,59.63
2022-07-30T02:48:03.159Z,59.90
2022-07-30T02:50:30.983Z,59.67
2022-07-30T02:52:59.722Z,59.91
2022-07-30T02:55:28.574Z,59.92
2022-07-30T02:57:56.443Z,59.56
2022-07-30T03:00:24.454Z,59.60
2022-07-30T03:02:56.778Z,60.66
2022-07-30T03:05:25.075Z,60.38
2022-07-30T03:07:55.406Z,60.90
2022-07-30T03:10:22.824Z,60.34
2022-07-30T03:12:50.502Z,60.32
2022-07-30T03:15:18.407Z,60.05
2022-07-30T03:17:46.442Z,59.89
2022-07-30T03:20:16.095Z,59.87
2022-07-30T03:22:45.181Z,60.14
2022-07-30T03:25:14.592Z,60.14
2022-07-30T03:27:42.979Z,60.04
2022-07-30T03:30:12.289Z,60.44
2022-07-30T03:32:39.382Z,60.29
2022-07-30T03:35:17.102Z,60.54
2022-07-30T03:37:46.265Z,60.34
2022-07-30T03:40:14.071Z,60.10
2022-07-30T03:42:41.235Z,60.41
2022-07-30T03:45:09.051Z,61.04
2022-07-30T03:47:38.783Z,60.89
2022-07-30T03:50:06.330Z,60.74
2022-07-30T03:52:38.635Z,61.00
2022-07-30T03:55:10.849Z,61.12
2022-07-30T03:57:49.868Z,60.73
2022-07-30T04:00:18.358Z,60.89
2022-07-30T04:02:49.819Z,61.12
2022-07-30T04:05:41.096Z,60.64
2022-07-30T04:08:09.129Z,61.26
2022-07-30T04:10:35.937Z,61.23
2022-07-30T04:13:09.172Z,60.79
2022-07-30T04:16:36.870Z,61.48
2022-07-30T04:18:37.843Z,61.74
2022-07-30T04:21:06.118Z,61.35
2022-07-30T04:23:33.381Z,61.46
2022-07-30T04:26:21.173Z,61.04
2022-07-30T04:29:18.244Z,57.73
2022-07-30T04:31:47.244Z,57.02
2022-07-30T04:34:32.890Z,54.50
2022-07-30T04:37:00.184Z,52.73
2022-07-30T04:39:28.220Z,52.76
2022-07-30T04:41:54.949Z,53.62
2022-07-30T04:44:34.233Z,55.32
2022-07-30T04:47:19.867Z,56.29
2022-07-30T04:50:09.070Z,57.48
2022-07-30T04:52:36.307Z,57.31
2022-07-30T04:55:07.152Z,58.35
2022-07-30T04:57:35.664Z,58.43
2022-07-30T05:00:06.860Z,58.18
2022-07-30T05:02:37.888Z,58.53
2022-07-30T05:05:05.661Z,58.42
2022-07-30T05:07:32.912Z,58.87
2022-07-30T05:10:01.843Z,59.03
2022-07-30T05:12:33.648Z,59.26
2022-07-30T05:15:01.079Z,59.29
2022-07-30T05:17:28.844Z,59.15
2022-07-30T05:19:56.381Z,58.82
2022-07-30T05:22:25.510Z,59.01
2022-07-30T05:24:52.323Z,59.06
2022-07-30T05:27:20.329Z,59.14
2022-07-30T05:29:47.092Z,59.00
2022-07-30T05:32:18.464Z,58.79
2022-07-30T05:34:49.828Z,58.60
2022-07-30T05:37:17.304Z,58.54
2022-07-30T05:40:02.764Z,58.60
2022-07-30T05:42:50.507Z,59.00
2022-07-30T05:45:19.359Z,59.14
2022-07-30T05:47:46.458Z,58.95
2022-07-30T05:50:13.377Z,58.69
2022-07-30T05:52:41.035Z,58.17
2022-07-30T05:55:27.685Z,58.48
2022-07-30T05:58:08.621Z,58.62
2022-07-30T06:00:35.731Z,58.57
2022-07-30T06:03:02.929Z,58.36
2022-07-30T06:05:49.792Z,58.41
2022-07-30T06:08:17.583Z,58.20
2022-07-30T06:10:46.233Z,58.56
2022-07-30T06:13:13.081Z,58.39
2022-07-30T06:15:40.139Z,58.33
2022-07-30T06:18:10.534Z,58.28
2022-07-30T06:20:43.285Z,58.28
2022-07-30T06:23:19.520Z,57.92
2022-07-30T06:26:06.205Z,57.90
2022-07-30T06:28:38.079Z,57.11
2022-07-30T06:31:15.103Z,56.63
2022-07-30T06:33:43.061Z,56.64
2022-07-30T06:36:13.731Z,55.94
2022-07-30T06:38:51.559Z,55.88
2022-07-30T06:41:25.682Z,55.51
2022-07-30T06:43:53.717Z,55.55
2022-07-30T06:46:39.168Z,55.50
2022-07-30T06:49:06.000Z,54.86
2022-07-30T06:51:33.308Z,54.68
2022-07-30T06:54:00.383Z,54.69
2022-07-30T06:56:37.299Z,53.65
2022-07-30T06:59:06.425Z,53.49
2022-07-30T07:02:05.006Z,53.90
2022-07-30T07:04:39.239Z,52.74
2022-07-30T07:07:12.578Z,52.20
2022-07-30T07:09:40.373Z,51.91
2022-07-30T07:12:30.010Z,51.73
2022-07-30T07:14:56.870Z,52.31
2022-07-30T07:17:23.784Z,51.59
2022-07-30T07:20:05.962Z,51.73
2022-07-30T07:22:39.985Z,51.40
2022-07-30T07:25:08.735Z,51.12
2022-07-30T07:27:36.956Z,51.43
2022-07-30T07:30:06.170Z,51.01
2022-07-30T07:32:37.325Z,50.59
2022-07-30T07:35:05.830Z,51.26
2022-07-30T07:37:34.683Z,51.17
2022-07-30T07:40:03.305Z,50.50
2022-07-30T07:42:33.455Z,50.50
2022-07-30T07:45:01.196Z,50.51
2022-07-30T07:47:43.270Z,49.82
2022-07-30T07:50:41.770Z,50.26
2022-07-30T07:53:16.133Z,49.88
2022-07-30T07:55:42.930Z,49.77
2022-07-30T07:58:13.476Z,49.98
2022-07-30T08:00:44.760Z,49.33
2022-07-30T08:03:12.008Z,49.79
2022-07-30T08:05:56.784Z,49.57
2022-07-30T08:08:45.607Z,49.53
2022-07-30T08:11:31.103Z,48.95
2022-07-30T08:14:17.737Z,49.02
2022-07-30T08:17:03.316Z,48.82
2022-07-30T08:19:51.665Z,49.16
2022-07-30T08:22:21.670Z,48.91
2022-07-30T08:24:48.417Z,48.12
2022-07-30T08:27:15.402Z,48.38
2022-07-30T08:29:42.586Z,48.90
2022-07-30T08:32:09.496Z,48.34
2022-07-30T08:34:38.816Z,48.58
2022-07-30T08:37:05.605Z,48.48
2022-07-30T08:39:34.783Z,48.33
2022-07-30T08:42:05.051Z,47.95
2022-07-30T08:44:33.139Z,47.31
2022-07-30T08:47:03.208Z,47.82
2022-07-30T08:49:48.966Z,47.68
2022-07-30T08:52:18.619Z,47.67
2022-07-30T08:54:51.712Z,47.44
2022-07-30T08:57:23.592Z,45.93
2022-07-30T08:59:59.386Z,46.59
2022-07-30T09:02:30.548Z,46.53
2022-07-30T09:05:04.748Z,46.26
2022-07-30T09:08:08.539Z,45.31
2022-07-30T09:10:35.729Z,45.31
2022-07-30T09:13:02.513Z,45.64
2022-07-30T09:15:29.477Z,44.41
2022-07-30T09:18:01.715Z,44.17
2022-07-30T09:20:34.131Z,44.50
2022-07-30T09:23:04.341Z,44.61
2022-07-30T09:25:38.120Z,42.89
2022-07-30T09:28:36.971Z,43.45
2022-07-30T09:31:53.230Z,43.62
2022-07-30T09:34:43.105Z,43.12
2022-07-30T09:37:28.592Z,43.41
2022-07-30T09:40:18.583Z,43.58
2022-07-30T09:43:11.524Z,43.94
2022-07-30T09:45:56.885Z,42.24
2022-07-30T09:48:26.731Z,41.97
2022-07-30T09:50:55.011Z,41.88
2022-07-30T09:53:24.544Z,41.26
2022-07-30T09:55:51.375Z,41.86
2022-07-30T09:58:26.501Z,41.53
2022-07-30T10:00:57.800Z,40.86
2022-07-30T10:03:46.676Z,41.01
2022-07-30T10:06:34.803Z,41.66
2022-07-30T10:09:14.082Z,43.00
2022-07-30T10:11:48.445Z,42.37
2022-07-30T10:14:15.601Z,41.08
2022-07-30T10:16:42.439Z,41.45
2022-07-30T10:19:18.071Z,41.50
2022-07-30T10:22:05.270Z,40.86
2022-07-30T10:24:50.499Z,40.50
2022-07-30T10:27:37.223Z,40.53
2022-07-30T10:30:24.905Z,40.30
2022-07-30T10:32:54.889Z,40.90
2022-07-30T10:35:34.831Z,39.85
2022-07-30T10:38:08.543Z,39.22
2022-07-30T10:40:39.509Z,39.55
2022-07-30T10:43:31.902Z,39.70
2022-07-30T10:46:23.298Z,39.95
2022-07-30T10:48:50.209Z,40.26
2022-07-30T10:51:25.570Z,39.13
2022-07-30T10:54:01.646Z,39.87
2022-07-30T10:56:28.410Z,39.32
2022-07-30T10:59:00.250Z,39.53
2022-07-30T11:01:51.692Z,40.00
2022-07-30T11:04:29.544Z,39.80
2022-07-30T11:07:49.501Z,37.88
2022-07-30T11:10:37.229Z,38.95
2022-07-30T11:13:05.845Z,39.47
2022-07-30T11:15:59.703Z,38.32
2022-07-30T11:18:26.764Z,38.35
2022-07-30T11:21:24.666Z,38.46
2022-07-30T11:23:54.824Z,39.17
2022-07-30T11:26:41.594Z,38.26
2022-07-30T11:29:50.528Z,38.69
2022-07-30T11:32:32.468Z,38.41
2022-07-30T11:35:24.281Z,38.51
2022-07-30T11:38:12.945Z,38.89
2022-07-30T11:41:02.405Z,38.75
2022-07-30T11:43:35.564Z,38.68
2022-07-30T11:46:16.471Z,38.43
2022-07-30T11:49:08.197Z,39.22
2022-07-30T11:51:41.997Z,39.37
2022-07-30T11:54:10.712Z,38.45
2022-07-30T11:56:37.557Z,38.26
2022-07-30T11:59:05.729Z,38.43
2022-07-30T12:01:33.409Z,37.80
2022-07-30T12:04:04.664Z,38.19
2022-07-30T12:06:36.394Z,38.26
2022-07-30T12:09:03.339Z,38.13
2022-07-30T12:11:33.647Z,37.49
2022-07-30T12:14:02.000Z,37.54
2022-07-30T12:16:30.715Z,37.71
2022-07-30T12:19:05.191Z,38.09
2022-07-30T12:21:32.183Z,38.26
2022-07-30T12:24:02.167Z,37.76
2022-07-30T12:26:34.074Z,37.91
2022-07-30T12:29:04.988Z,37.25
2022-07-30T12:31:33.503Z,37.54
2022-07-30T12:34:00.725Z,37.94
2022-07-30T12:36:34.021Z,37.96
2022-07-30T12:39:01.975Z,38.42
2022-07-30T12:41:45.892Z,38.00
2022-07-30T12:44:41.552Z,37.37
2022-07-30T12:47:26.519Z,37.03
2022-07-30T12:50:00.704Z,37.26
2022-07-30T12:52:31.675Z,37.63
2022-07-30T12:55:02.804Z,37.12
2022-07-30T12:58:07.551Z,37.30
2022-07-30T13:00:43.938Z,37.26
2022-07-30T13:03:40.742Z,37.10
2022-07-30T13:06:33.485Z,37.24
2022-07-30T13:09:00.701Z,36.85
2022-07-30T13:11:38.428Z,36.65
2022-07-30T13:14:05.429Z,36.63
2022-07-30T13:16:34.744Z,36.79
2022-07-30T13:19:03.530Z,37.01
2022-07-30T13:21:30.273Z,36.74
2022-07-30T13:23:57.063Z,36.22
2022-07-30T13:26:23.807Z,36.12
2022-07-30T13:29:01.293Z,36.37
2022-07-30T13:31:28.478Z,36.40
2022-07-30T13:34:09.424Z,36.39
2022-07-30T13:36:36.239Z,36.47
2022-07-30T13:39:02.970Z,36.51
2022-07-30T13:41:36.002Z,36.24
2022-07-30T13:44:03.187Z,35.47
2022-07-30T13:46:29.940Z,35.95
2022-07-30T13:48:56.679Z,36.13
2022-07-30T13:51:23.457Z,36.08
2022-07-30T13:53:52.315Z,36.32
2022-07-30T13:56:19.699Z,36.34
2022-07-30T13:58:47.544Z,35.74
2022-07-30T14:01:15.807Z,35.74
2022-07-30T14:03:49.907Z,36.02
2022-07-30T14:06:22.490Z,35.86
2022-07-30T14:08:49.264Z,35.95
2022-07-30T14:11:18.500Z,35.76
2022-07-30T14:13:45.855Z,36.13
2022-07-30T14:16:28.862Z,35.53
2022-07-30T14:19:00.896Z,35.74
2022-07-30T14:21:27.542Z,35.65
2022-07-30T14:23:55.038Z,35.31
2022-07-30T14:26:21.697Z,35.19
2022-07-30T14:28:48.377Z,35.61
2022-07-30T14:31:16.703Z,35.67
2022-07-30T14:33:43.462Z,35.59
2022-07-30T14:36:10.234Z,35.15
2022-07-30T14:38:39.704Z,35.21
2022-07-30T14:41:07.163Z,34.99
2022-07-30T14:43:33.850Z,34.93
2022-07-30T14:46:02.530Z,34.70
2022-07-30T14:48:29.303Z,34.25
2022-07-30T14:51:13.382Z,33.96
2022-07-30T14:53:42.623Z,33.87
2022-07-30T14:56:14.139Z,33.97
2022-07-30T14:58:41.622Z,34.34
2022-07-30T15:01:16.667Z,34.39
2022-07-30T15:03:44.781Z,34.54
2022-07-30T15:06:12.705Z,33.85
2022-07-30T15:08:39.380Z,33.72
2022-07-30T15:11:08.069Z,33.80
2022-07-30T15:13:36.356Z,33.85
2022-07-30T15:16:03.109Z,33.72
2022-07-30T15:18:29.853Z,33.85
2022-07-30T15:20:58.828Z,33.20
2022-07-30T15:23:25.582Z,33.41
2022-07-30T15:25:52.259Z,33.09
2022-07-30T15:28:19.566Z,33.39
2022-07-30T15:30:46.315Z,33.41
2022-07-30T15:33:13.009Z,32.99
2022-07-30T15:35:39.702Z,32.83
2022-07-30T15:38:06.359Z,33.04
2022-07-30T15:40:35.100Z,32.90
2022-07-30T15:43:01.782Z,33.49
2022-07-30T15:45:50.091Z,33.17
2022-07-30T15:48:26.674Z,33.14
2022-07-30T15:51:01.345Z,32.94
2022-07-30T15:53:28.090Z,33.33
2022-07-30T15:55:54.736Z,33.61
2022-07-30T15:58:21.368Z,33.93
2022-07-30T16:00:48.384Z,33.68
2022-07-30T16:03:15.139Z,33.62
2022-07-30T16:05:51.499Z,33.36
2022-07-30T16:08:20.110Z,33.64
2022-07-30T16:10:46.805Z,32.36
2022-07-30T16:13:13.502Z,33.08
2022-07-30T16:15:40.165Z,32.99
2022-07-30T16:18:06.894Z,33.06
2022-07-30T16:20:33.599Z,33.17
2022-07-30T16:23:00.689Z,33.16
2022-07-30T16:25:28.546Z,32.26
2022-07-30T16:27:55.273Z,32.80
2022-07-30T16:30:24.263Z,32.66
2022-07-30T16:32:56.160Z,32.48
2022-07-30T16:35:23.154Z,32.79
2022-07-30T16:37:49.814Z,31.52
2022-07-30T16:40:16.604Z,32.15
2022-07-30T16:42:43.376Z,31.86
2022-07-30T16:45:10.419Z,31.30
2022-07-30T16:47:37.099Z,31.46
2022-07-30T16:50:04.210Z,32.23
2022-07-30T16:52:30.934Z,31.51
2022-07-30T16:54:57.704Z,31.18
2022-07-30T16:57:24.401Z,31.08
2022-07-30T16:59:51.105Z,30.72
2022-07-30T17:02:17.866Z,31.34
2022-07-30T17:04:44.791Z,31.33
2022-07-30T17:07:11.453Z,30.52
2022-07-30T17:09:38.097Z,30.04
2022-07-30T17:12:11.947Z,29.13
2022-07-30T17:14:40.812Z,29.26
2022-07-30T17:17:38.334Z,29.17
2022-07-30T17:20:06.432Z,30.10
2022-07-30T17:22:33.415Z,29.90
2022-07-30T17:25:00.081Z,30.83
2022-07-30T17:27:28.157Z,31.06
2022-07-30T17:29:54.886Z,31.41
2022-07-30T17:32:21.922Z,30.17
2022-07-30T17:34:49.103Z,29.72
2022-07-30T17:37:16.106Z,30.16
2022-07-30T17:40:23.905Z,30.31
2022-07-30T17:42:35.786Z,30.61
2022-07-30T17:45:02.588Z,30.25
2022-07-30T17:47:29.274Z,30.67
2022-07-30T17:49:55.964Z,30.61
2022-07-30T17:52:26.766Z,30.64
2022-07-30T17:54:54.279Z,31.25
2022-07-30T17:57:21.162Z,31.29
2022-07-30T17:59:47.891Z,31.08
2022-07-30T18:02:14.738Z,31.58
2022-07-30T18:04:43.611Z,31.28
2022-07-30T18:07:10.244Z,31.60
2022-07-30T18:09:40.053Z,31.92
2022-07-30T18:12:07.296Z,31.67
2022-07-30T18:14:33.956Z,31.21
2022-07-30T18:17:02.740Z,31.57
2022-07-30T18:19:29.406Z,31.48
2022-07-30T18:21:56.142Z,31.46
2022-07-30T18:24:24.723Z,31.61
2022-07-30T18:26:51.797Z,31.87
2022-07-30T18:29:18.461Z,32.03
2022-07-30T18:31:45.215Z,32.11
2022-07-30T18:34:11.949Z,32.68
2022-07-30T18:36:39.667Z,32.95
2022-07-30T18:39:06.414Z,33.34
2022-07-30T18:41:33.073Z,33.46
2022-07-30T18:43:59.785Z,33.35
2022-07-30T18:46:26.478Z,33.84
2022-07-30T18:48:53.265Z,34.28
2022-07-30T18:51:19.993Z,33.93
2022-07-30T18:54:17.908Z,34.63
2022-07-30T18:56:44.588Z,34.28
2022-07-30T18:59:11.287Z,34.34
2022-07-30T19:01:39.323Z,34.55
2022-07-30T19:04:06.394Z,34.62
2022-07-30T19:06:33.034Z,34.96
2022-07-30T19:09:00.115Z,34.97
2022-07-30T19:11:26.880Z,35.39
2022-07-30T19:13:54.608Z,35.82
2022-07-30T19:16:21.325Z,36.03
2022-07-30T19:18:48.379Z,36.14
2022-07-30T19:21:15.065Z,36.16
2022-07-30T19:23:41.779Z,35.65
2022-07-30T19:26:08.882Z,36.08
2022-07-30T19:28:36.261Z,36.05
2022-07-30T19:31:03.039Z,35.70
2022-07-30T19:33:29.696Z,35.85
2022-07-30T19:35:56.343Z,37.25
2022-07-30T19:38:23.904Z,38.88
2022-07-30T19:40:51.225Z,38.56
2022-07-30T19:43:17.979Z,38.39
2022-07-30T19:45:50.830Z,38.09
2022-07-30T19:48:28.935Z,37.89
2022-07-30T19:50:59.048Z,38.26
2022-07-30T19:53:26.146Z,37.94
2022-07-30T19:55:55.726Z,38.00
2022-07-30T19:58:22.614Z,37.75
2022-07-30T20:00:51.663Z,37.92
2022-07-30T20:03:25.497Z,37.82
2022-07-30T20:05:54.919Z,38.04
2022-07-30T20:08:25.402Z,37.84
2022-07-30T20:10:52.203Z,37.80
2022-07-30T20:13:18.983Z,37.74
2022-07-30T20:15:46.477Z,37.86
2022-07-30T20:18:13.369Z,37.80
2022-07-30T20:20:41.397Z,37.54
2022-07-30T20:23:08.330Z,37.68
2022-07-30T20:25:37.241Z,37.80
2022-07-30T20:28:05.106Z,37.52
2022-07-30T20:30:32.603Z,37.60
2022-07-30T20:33:04.747Z,38.00
2022-07-30T20:35:33.886Z,37.74
2022-07-30T20:38:10.178Z,38.20
2022-07-30T20:40:37.095Z,38.61
2022-07-30T20:43:05.967Z,38.60
2022-07-30T20:45:37.775Z,38.62
2022-07-30T20:48:08.450Z,38.72
2022-07-30T20:50:45.975Z,38.82
2022-07-30T20:53:13.331Z,38.92
2022-07-30T20:55:40.936Z,38.69
2022-07-30T20:58:16.729Z,39.13
2022-07-30T21:00:49.520Z,39.09
2022-07-30T21:03:21.302Z,39.09
2022-07-30T21:05:48.511Z,39.17
2022-07-30T21:08:18.053Z,39.31
2022-07-30T21:10:46.127Z,39.51
2022-07-30T21:13:13.624Z,39.29
2022-07-30T21:16:01.807Z,38.91
2022-07-30T21:18:27.658Z,38.83
2022-07-30T21:20:54.291Z,38.98
2022-07-30T21:23:25.917Z,38.88
2022-07-30T21:26:00.428Z,38.85
2022-07-30T21:28:35.147Z,39.48
2022-07-30T21:31:02.326Z,39.77
2022-07-30T21:33:31.121Z,39.14
2022-07-30T21:35:59.277Z,39.08
2022-07-30T21:38:30.575Z,39.17
2022-07-30T21:40:58.287Z,39.05
2022-07-30T21:43:29.408Z,39.35
2022-07-30T21:45:57.656Z,39.99
2022-07-30T21:48:24.916Z,40.07
2022-07-30T21:50:54.166Z,40.32
2022-07-30T21:53:29.954Z,40.44
2022-07-30T21:56:07.524Z,40.82
2022-07-30T21:58:34.222Z,41.21
2022-07-30T22:04:03.095Z,41.57
2022-07-30T22:06:40.081Z,41.99
2022-07-30T22:09:19.629Z,41.39
2022-07-30T22:11:56.281Z,41.43
2022-07-30T22:14:25.531Z,41.52
2022-07-30T22:16:52.862Z,41.66
2022-07-30T22:19:21.640Z,41.56
2022-07-30T22:21:49.230Z,41.71
2022-07-30T22:24:29.431Z,41.68
2022-07-30T22:26:59.951Z,41.89
2022-07-30T22:29:34.371Z,41.91
2022-07-30T22:32:03.938Z,41.34
2022-07-30T22:34:31.197Z,40.99
2022-07-30T22:36:58.142Z,41.07
2022-07-30T22:39:31.689Z,40.53
2022-07-30T22:42:12.705Z,41.24
2022-07-30T22:44:39.610Z,41.33
2022-07-30T22:47:51.483Z,41.20
2022-07-30T22:50:26.111Z,40.59
2022-07-30T22:53:14.379Z,40.67
2022-07-30T22:55:41.503Z,41.70
2022-07-30T22:58:08.167Z,41.73
2022-07-30T23:00:36.805Z,41.72
2022-07-30T23:03:05.193Z,42.12
2022-07-30T23:05:35.479Z,42.23
2022-07-30T23:08:03.434Z,42.26
2022-07-30T23:10:30.251Z,41.94
2022-07-30T23:12:28.081Z,41.98
2022-07-30T23:12:58.934Z,41.52
2022-07-30T23:15:25.610Z,41.82
2022-07-30T23:17:53.362Z,42.07
2022-07-30T23:20:20.952Z,42.06
2022-07-30T23:22:48.004Z,41.64
2022-07-30T23:25:14.701Z,41.73
2022-07-30T23:27:46.660Z,42.25
2022-07-30T23:30:13.799Z,42.28
2022-07-30T23:32:40.566Z,42.52
2022-07-30T23:35:08.843Z,42.74
2022-07-30T23:37:47.596Z,42.65
2022-07-30T23:40:19.416Z,43.12
2022-07-30T23:42:47.468Z,42.85
2022-07-30T23:45:14.474Z,42.68
2022-07-30T23:47:58.018Z,42.94
2022-07-30T23:50:27.858Z,43.03
2022-07-30T23:52:54.526Z,42.98
2022-07-30T23:55:21.241Z,43.42
2022-07-30T23:57:48.046Z,43.33
